createdAt,value
2023-01-09T00:01:29.683Z,2.08
2023-01-09T00:03:57.898Z,2.85
2023-01-09T00:06:26.088Z,1.60
2023-01-09T00:08:54.385Z,2.65
2023-01-09T00:11:24.386Z,1.33
2023-01-09T00:13:52.714Z,1.98
2023-01-09T00:16:20.956Z,2.03
2023-01-09T00:18:49.176Z,4.15
2023-01-09T00:21:18.487Z,2.05
2023-01-09T00:23:46.687Z,3.03
2023-01-09T00:26:17.912Z,1.90
2023-01-09T00:28:48.164Z,3.80
2023-01-09T00:31:16.540Z,2.10
2023-01-09T00:33:47.397Z,2.08
2023-01-09T00:36:15.570Z,1.27
2023-01-09T00:38:43.694Z,1.30
2023-01-09T00:41:15.611Z,4.13
2023-01-09T00:43:50.215Z,1.70
2023-01-09T00:46:20.374Z,1.83
2023-01-09T00:48:49.807Z,2.20
2023-01-09T00:51:19.722Z,4.22
2023-01-09T00:53:49.060Z,1.48
2023-01-09T00:56:20.596Z,1.70
2023-01-09T00:58:50.435Z,3.00
2023-01-09T01:01:18.981Z,1.63
2023-01-09T01:03:47.137Z,2.28
2023-01-09T01:06:33.061Z,5.25
2023-01-09T01:09:01.427Z,2.13
2023-01-09T01:11:29.969Z,1.23
2023-01-09T01:13:59.484Z,2.72
2023-01-09T01:16:28.081Z,2.13
2023-01-09T01:18:56.173Z,3.15
2023-01-09T01:21:24.393Z,2.45
2023-01-09T01:23:53.061Z,2.17
2023-01-09T01:26:21.223Z,2.83
2023-01-09T01:28:49.298Z,5.07
2023-01-09T01:31:20.525Z,4.13
2023-01-09T01:33:48.658Z,2.58
2023-01-09T01:36:17.934Z,2.25
2023-01-09T01:38:46.895Z,2.28
2023-01-09T01:41:29.784Z,3.25
2023-01-09T01:44:00.070Z,1.98
2023-01-09T01:46:30.338Z,2.75
2023-01-09T01:49:01.382Z,2.45
2023-01-09T01:51:32.151Z,1.48
2023-01-09T01:54:05.241Z,3.00
2023-01-09T01:56:38.140Z,2.60
2023-01-09T01:59:11.504Z,2.15
2023-01-09T02:01:44.110Z,2.67
2023-01-09T02:04:13.149Z,3.00
2023-01-09T02:06:42.453Z,1.48
2023-01-09T02:09:13.683Z,2.35
2023-01-09T02:11:46.024Z,2.45
2023-01-09T02:14:14.784Z,1.98
2023-01-09T02:20:37.199Z,3.42
2023-01-09T02:23:31.498Z,1.98
2023-01-09T02:26:28.211Z,2.83
2023-01-09T02:29:26.104Z,2.22
2023-01-09T02:32:01.253Z,3.53
2023-01-09T02:34:37.695Z,1.40
2023-01-09T02:37:11.943Z,2.58
2023-01-09T02:39:47.781Z,4.18
2023-01-09T02:42:20.351Z,2.63
2023-01-09T02:44:48.699Z,2.17
2023-01-09T02:47:41.695Z,4.15
2023-01-09T02:50:14.907Z,2.38
2023-01-09T02:52:58.839Z,3.30
2023-01-09T02:55:43.212Z,4.78
2023-01-09T02:58:16.766Z,2.90
2023-01-09T03:00:55.939Z,4.28
2023-01-09T03:03:36.264Z,1.98
2023-01-09T03:06:11.499Z,3.00
2023-01-09T03:08:42.280Z,1.50
2023-01-09T03:11:12.255Z,4.57
2023-01-09T03:13:47.009Z,2.63
2023-01-09T03:16:20.532Z,2.00
2023-01-09T03:18:51.613Z,3.03
2023-01-09T03:21:21.699Z,2.10
2023-01-09T03:23:52.048Z,2.70
2023-01-09T03:26:20.771Z,2.80
2023-01-09T03:28:49.608Z,1.95
2023-01-09T03:31:18.356Z,2.45
2023-01-09T03:33:46.474Z,2.45
2023-01-09T03:36:17.154Z,3.33
2023-01-09T03:38:45.457Z,2.80
2023-01-09T03:41:13.726Z,2.47
2023-01-09T03:43:41.925Z,5.25
2023-01-09T03:46:10.214Z,3.83
2023-01-09T03:48:38.656Z,3.58
2023-01-09T03:51:06.990Z,2.53
2023-01-09T03:53:36.518Z,4.75
2023-01-09T03:56:04.924Z,2.15
2023-01-09T03:58:33.011Z,2.13
2023-01-09T04:01:02.768Z,2.47
2023-01-09T04:03:31.356Z,3.63
2023-01-09T04:05:59.721Z,4.22
2023-01-09T04:08:28.052Z,2.63
2023-01-09T04:10:57.605Z,3.97
2023-01-09T04:13:25.812Z,2.33
2023-01-09T04:15:54.247Z,4.22
2023-01-09T04:18:22.406Z,3.78
2023-01-09T04:20:50.803Z,2.63
2023-01-09T04:23:19.240Z,1.90
2023-01-09T04:25:47.701Z,5.80
2023-01-09T04:28:17.234Z,4.82
2023-01-09T04:30:45.885Z,3.55
2023-01-09T04:33:14.407Z,3.60
2023-01-09T04:35:42.537Z,5.10
2023-01-09T04:38:10.639Z,3.30
2023-01-09T04:40:38.809Z,4.95
2023-01-09T04:43:06.898Z,3.28
2023-01-09T04:45:36.667Z,3.40
2023-01-09T04:48:05.293Z,4.70
2023-01-09T04:50:33.830Z,4.47
2023-01-09T04:53:01.931Z,3.95
2023-01-09T04:55:30.415Z,4.55
2023-01-09T04:57:58.519Z,4.30
2023-01-09T05:00:26.625Z,3.03
2023-01-09T05:02:57.089Z,4.90
2023-01-09T05:05:25.481Z,3.47
2023-01-09T05:07:53.567Z,3.30
2023-01-09T05:10:21.708Z,5.25
2023-01-09T05:12:50.179Z,3.05
2023-01-09T05:15:18.462Z,3.97
2023-01-09T05:17:47.213Z,4.82
2023-01-09T05:20:18.229Z,3.03
2023-01-09T05:22:46.384Z,4.45
2023-01-09T05:25:14.477Z,4.00
2023-01-09T05:27:46.186Z,3.88
2023-01-09T05:30:17.895Z,3.97
2023-01-09T05:32:46.471Z,4.18
2023-01-09T05:35:14.567Z,4.97
2023-01-09T05:37:44.530Z,3.22
2023-01-09T05:40:13.713Z,4.55
2023-01-09T05:42:43.031Z,4.43
2023-01-09T05:45:12.108Z,5.57
2023-01-09T05:47:40.270Z,4.68
2023-01-09T05:50:09.517Z,3.63
2023-01-09T05:52:37.619Z,5.60
2023-01-09T05:55:08.587Z,4.25
2023-01-09T05:57:36.729Z,3.92
2023-01-09T06:00:05.700Z,4.72
2023-01-09T06:02:34.208Z,5.07
2023-01-09T06:05:02.600Z,3.13
2023-01-09T06:07:30.900Z,5.57
2023-01-09T06:09:58.992Z,4.38
2023-01-09T06:12:28.524Z,4.22
2023-01-09T06:14:57.001Z,4.97
2023-01-09T06:17:25.164Z,3.03
2023-01-09T06:19:53.552Z,4.65
2023-01-09T06:22:21.652Z,4.25
2023-01-09T06:24:50.166Z,3.65
2023-01-09T06:27:18.335Z,2.72
2023-01-09T06:29:47.980Z,4.43
2023-01-09T06:32:16.225Z,1.73
2023-01-09T06:34:44.497Z,1.58
2023-01-09T06:37:13.409Z,2.95
2023-01-09T06:39:41.832Z,2.20
2023-01-09T06:42:09.967Z,2.78
2023-01-09T06:44:38.477Z,1.92
2023-01-09T06:47:08.035Z,3.20
2023-01-09T06:49:36.548Z,3.78
2023-01-09T06:52:07.690Z,2.03
2023-01-09T06:54:36.565Z,2.58
2023-01-09T06:57:04.776Z,3.30
2023-01-09T06:59:33.175Z,1.52
2023-01-09T07:02:01.309Z,4.93
2023-01-09T07:04:31.126Z,1.27
2023-01-09T07:06:59.242Z,2.33
2023-01-09T07:09:27.364Z,1.75
2023-01-09T07:11:55.789Z,1.40
2023-01-09T07:14:23.867Z,1.05
2023-01-09T07:16:51.975Z,0.63
2023-01-09T07:19:20.187Z,1.88
2023-01-09T07:21:49.716Z,1.50
2023-01-09T07:24:17.845Z,2.85
2023-01-09T07:26:46.336Z,1.90
2023-01-09T07:29:14.457Z,2.10
2023-01-09T07:31:42.607Z,3.03
2023-01-09T07:34:10.685Z,1.67
2023-01-09T07:36:38.850Z,1.92
2023-01-09T07:39:09.170Z,1.88
2023-01-09T07:41:37.327Z,2.28
2023-01-09T07:44:09.579Z,3.08
2023-01-09T07:46:39.495Z,2.45
2023-01-09T07:49:07.894Z,2.88
2023-01-09T07:51:36.070Z,2.30
2023-01-09T07:54:04.379Z,2.95
2023-01-09T07:56:33.943Z,2.10
2023-01-09T07:59:02.110Z,3.40
2023-01-09T08:01:30.327Z,3.53
2023-01-09T08:03:58.502Z,3.28
2023-01-09T08:06:26.737Z,4.22
2023-01-09T08:08:55.167Z,2.75
2023-01-09T08:11:23.243Z,2.45
2023-01-09T08:13:52.983Z,3.38
2023-01-09T08:16:21.374Z,5.18
2023-01-09T08:18:49.835Z,3.30
2023-01-09T08:21:18.236Z,3.38
2023-01-09T08:23:46.721Z,3.60
2023-01-09T08:26:14.831Z,2.20
2023-01-09T08:28:42.980Z,2.75
2023-01-09T08:31:12.543Z,3.28
2023-01-09T08:33:40.734Z,2.17
2023-01-09T08:36:09.503Z,2.60
2023-01-09T08:38:38.099Z,2.63
2023-01-09T08:41:26.303Z,3.90
2023-01-09T08:44:17.310Z,5.13
2023-01-09T08:47:04.063Z,5.45
2023-01-09T08:49:32.396Z,4.10
2023-01-09T08:52:01.047Z,3.47
2023-01-09T08:54:31.215Z,5.90
2023-01-09T08:56:59.686Z,2.83
2023-01-09T08:59:27.813Z,4.88
2023-01-09T09:01:57.349Z,4.28
2023-01-09T09:04:25.506Z,1.70
2023-01-09T09:06:53.635Z,5.88
2023-01-09T09:09:22.034Z,5.10
2023-01-09T09:11:50.166Z,3.58
2023-01-09T09:14:35.835Z,3.10
2023-01-09T09:17:05.423Z,6.25
2023-01-09T09:19:33.855Z,6.82
2023-01-09T09:22:01.978Z,9.13
2023-01-09T09:24:30.064Z,7.30
2023-01-09T09:26:58.190Z,6.45
2023-01-09T09:29:26.319Z,3.72
2023-01-09T09:31:54.459Z,5.60
2023-01-09T09:34:24.183Z,5.75
2023-01-09T09:36:52.424Z,5.05
2023-01-09T09:39:20.741Z,6.68
2023-01-09T09:42:32.568Z,7.22
2023-01-09T09:45:13.109Z,9.32
2023-01-09T09:47:49.264Z,5.85
2023-01-09T09:50:32.494Z,4.18
2023-01-09T09:53:08.048Z,7.40
2023-01-09T09:55:38.508Z,7.15
2023-01-09T09:58:12.799Z,4.95
2023-01-09T10:00:41.139Z,5.25
2023-01-09T10:03:18.340Z,3.65
2023-01-09T10:05:52.009Z,2.35
2023-01-09T10:08:31.566Z,5.53
2023-01-09T10:11:00.190Z,3.88
2023-01-09T10:13:45.644Z,3.78
2023-01-09T10:16:26.791Z,3.30
2023-01-09T10:19:05.493Z,5.07
2023-01-09T10:21:41.450Z,2.38
2023-01-09T10:24:41.014Z,4.88
2023-01-09T10:27:18.965Z,3.15
2023-01-09T10:30:24.255Z,3.47
2023-01-09T10:33:02.851Z,4.72
2023-01-09T10:35:52.030Z,4.40
2023-01-09T10:38:27.208Z,3.83
2023-01-09T10:41:03.143Z,2.60
2023-01-09T10:43:36.460Z,2.17
2023-01-09T10:46:09.093Z,1.67
2023-01-09T10:48:40.927Z,1.33
2023-01-09T10:51:19.293Z,2.67
2023-01-09T10:53:52.549Z,2.47
2023-01-09T10:56:24.695Z,1.83
2023-01-09T10:58:54.331Z,1.88
2023-01-09T11:01:26.318Z,4.25
2023-01-09T11:03:54.947Z,4.00
2023-01-09T11:06:27.243Z,0.82
2023-01-09T11:09:00.481Z,1.20
2023-01-09T11:11:37.024Z,3.97
2023-01-09T11:14:08.743Z,1.52
2023-01-09T11:16:36.862Z,3.95
2023-01-09T11:19:05.196Z,3.78
2023-01-09T11:21:36.026Z,1.63
2023-01-09T11:24:31.546Z,1.33
2023-01-09T11:27:23.704Z,3.15
2023-01-09T11:30:20.121Z,1.20
2023-01-09T11:32:49.072Z,3.10
2023-01-09T11:35:21.896Z,2.58
2023-01-09T11:37:59.137Z,0.77
2023-01-09T11:40:30.686Z,2.47
2023-01-09T11:43:12.830Z,1.63
2023-01-09T11:45:56.318Z,1.48
2023-01-09T11:48:34.681Z,1.50
2023-01-09T11:51:06.843Z,1.95
2023-01-09T11:53:52.077Z,6.00
2023-01-09T11:56:22.039Z,1.88
2023-01-09T11:58:50.295Z,1.23
2023-01-09T12:01:38.915Z,1.10
2023-01-09T12:04:28.882Z,3.17
2023-01-09T12:07:17.208Z,0.52
2023-01-09T12:09:53.404Z,3.28
2023-01-09T12:12:30.076Z,1.10
2023-01-09T12:15:22.896Z,1.15
2023-01-09T12:18:12.654Z,1.33
2023-01-09T12:21:00.235Z,3.47
2023-01-09T12:23:40.758Z,1.17
2023-01-09T12:26:18.450Z,0.98
2023-01-09T12:29:15.506Z,0.50
2023-01-09T12:31:58.219Z,2.45
2023-01-09T12:34:38.791Z,2.38
2023-01-09T12:37:30.426Z,1.90
2023-01-09T12:40:06.323Z,2.08
2023-01-09T12:42:45.532Z,0.52
2023-01-09T12:45:35.948Z,1.25
2023-01-09T12:48:18.611Z,0.50
2023-01-09T12:51:11.460Z,1.63
2023-01-09T12:53:44.505Z,0.95
2023-01-09T12:56:17.318Z,2.78
2023-01-09T12:58:50.461Z,1.60
2023-01-09T13:01:25.631Z,3.53
2023-01-09T13:04:00.139Z,3.45
2023-01-09T13:06:29.887Z,3.05
2023-01-09T13:09:10.218Z,0.90
2023-01-09T13:11:43.808Z,2.75
2023-01-09T13:14:19.049Z,2.35
2023-01-09T13:16:53.576Z,2.55
2023-01-09T13:19:26.733Z,0.52
2023-01-09T13:21:55.707Z,0.80
2023-01-09T13:24:31.020Z,1.48
2023-01-09T13:27:02.671Z,2.20
2023-01-09T13:29:34.325Z,1.65
2023-01-09T13:32:17.916Z,1.08
2023-01-09T13:34:48.687Z,2.05
2023-01-09T13:37:23.953Z,1.88
2023-01-09T13:40:00.128Z,0.73
2023-01-09T13:42:40.113Z,1.92
2023-01-09T13:45:21.111Z,1.75
2023-01-09T13:48:34.798Z,1.33
2023-01-09T13:51:36.004Z,2.85
2023-01-09T13:54:04.506Z,2.15
2023-01-09T13:56:32.595Z,5.15
2023-01-09T13:59:04.157Z,2.88
2023-01-09T14:01:47.561Z,0.90
2023-01-09T14:04:45.972Z,2.20
2023-01-09T14:07:32.063Z,1.35
2023-01-09T14:10:02.462Z,0.65
2023-01-09T14:12:33.659Z,2.03
2023-01-09T14:15:03.210Z,2.00
2023-01-09T14:17:36.844Z,1.27
2023-01-09T14:20:09.824Z,1.58
2023-01-09T14:22:50.309Z,1.35
2023-01-09T14:25:27.164Z,2.92
2023-01-09T14:28:23.150Z,2.22
2023-01-09T14:31:10.163Z,2.80
2023-01-09T14:33:39.097Z,1.85
2023-01-09T14:36:16.773Z,1.27
2023-01-09T14:38:47.865Z,3.50
2023-01-09T14:41:44.540Z,3.85
2023-01-09T14:44:26.901Z,0.93
2023-01-09T14:46:56.818Z,1.98
2023-01-09T14:49:34.741Z,2.05
2023-01-09T14:52:14.255Z,1.58
2023-01-09T14:54:45.222Z,1.48
2023-01-09T14:57:26.226Z,2.60
2023-01-09T15:00:01.813Z,2.35
2023-01-09T15:02:33.860Z,0.93
2023-01-09T15:05:06.585Z,0.73
2023-01-09T15:07:41.102Z,1.67
2023-01-09T15:10:17.634Z,2.60
2023-01-09T15:12:47.392Z,1.73
2023-01-09T15:15:16.973Z,2.10
2023-01-09T15:17:55.290Z,3.00
2023-01-09T15:20:27.535Z,1.60
2023-01-09T15:22:58.101Z,3.90
2023-01-09T15:25:38.012Z,0.93
2023-01-09T15:28:25.600Z,1.83
2023-01-09T15:31:05.220Z,1.95
2023-01-09T15:33:34.300Z,1.05
2023-01-09T15:36:07.034Z,1.45
2023-01-09T15:38:37.434Z,2.00
2023-01-09T15:41:09.753Z,0.95
2023-01-09T15:43:42.533Z,2.05
2023-01-09T15:46:12.403Z,1.50
2023-01-09T15:48:40.825Z,0.60
2023-01-09T15:51:12.023Z,0.50
2023-01-09T15:53:42.796Z,3.78
2023-01-09T15:56:20.227Z,1.90
2023-01-09T15:58:49.531Z,1.48
2023-01-09T16:01:31.884Z,2.20
2023-01-09T16:04:06.978Z,1.67
2023-01-09T16:06:37.404Z,1.10
2023-01-09T16:09:17.456Z,1.15
2023-01-09T16:11:48.667Z,2.70
2023-01-09T16:14:21.781Z,0.77
2023-01-09T16:16:51.505Z,1.00
2023-01-09T16:19:31.541Z,2.20
2023-01-09T16:22:01.223Z,1.10
2023-01-09T16:24:40.327Z,1.00
2023-01-09T16:27:26.180Z,1.08
2023-01-09T16:29:57.996Z,0.73
2023-01-09T16:32:30.086Z,0.73
2023-01-09T16:35:00.867Z,2.22
2023-01-09T16:37:29.491Z,0.82
2023-01-09T16:40:36.086Z,1.05
2023-01-09T16:43:05.676Z,1.90
2023-01-09T16:45:36.420Z,0.93
2023-01-09T16:48:12.284Z,0.63
2023-01-09T16:50:40.884Z,0.85
2023-01-09T16:53:16.355Z,0.90
2023-01-09T16:55:46.400Z,0.75
2023-01-09T16:58:18.461Z,0.77
2023-01-09T17:00:47.879Z,1.20
2023-01-09T17:03:16.867Z,2.53
2023-01-09T17:05:45.536Z,2.05
2023-01-09T17:08:22.538Z,1.02
2023-01-09T17:10:52.667Z,0.50
2023-01-09T17:13:21.385Z,0.77
2023-01-09T17:15:49.936Z,0.57
2023-01-09T17:18:20.446Z,1.38
2023-01-09T17:20:50.379Z,0.70
2023-01-09T17:23:20.704Z,2.17
2023-01-09T17:26:07.180Z,5.10
2023-01-09T17:28:37.544Z,1.58
2023-01-09T17:31:09.270Z,1.20
2023-01-09T17:33:38.454Z,2.95
2023-01-09T17:36:12.578Z,2.25
2023-01-09T17:38:40.971Z,0.28
2023-01-09T17:41:09.855Z,1.00
2023-01-09T17:43:41.937Z,0.65
2023-01-09T17:46:17.151Z,2.75
2023-01-09T17:48:46.623Z,0.68
2023-01-09T17:51:14.737Z,0.73
2023-01-09T17:53:42.870Z,1.42
2023-01-09T17:56:17.360Z,2.50
2023-01-09T17:58:47.262Z,3.90
2023-01-09T18:01:17.443Z,4.30
2023-01-09T18:03:48.485Z,2.55
2023-01-09T18:06:18.806Z,1.45
2023-01-09T18:08:47.539Z,1.02
2023-01-09T18:11:18.454Z,1.63
2023-01-09T18:13:49.801Z,4.20
2023-01-09T18:16:20.242Z,3.70
2023-01-09T18:18:48.451Z,1.52
2023-01-09T18:21:18.560Z,2.40
2023-01-09T18:23:47.768Z,2.05
2023-01-09T18:26:21.182Z,4.30
2023-01-09T18:28:52.880Z,5.30
2023-01-09T18:31:24.019Z,2.13
2023-01-09T18:33:53.626Z,0.90
2023-01-09T18:36:23.692Z,2.28
2023-01-09T18:38:53.661Z,0.60
2023-01-09T18:41:22.572Z,1.20
2023-01-09T18:43:53.421Z,1.77
2023-01-09T18:46:24.592Z,2.17
2023-01-09T18:48:54.169Z,2.92
2023-01-09T18:51:23.367Z,1.55
2023-01-09T18:53:52.061Z,2.80
2023-01-09T18:56:20.861Z,1.90
2023-01-09T18:58:49.588Z,3.15
2023-01-09T19:01:20.022Z,5.60
2023-01-09T19:03:48.709Z,2.85
2023-01-09T19:06:16.941Z,2.80
2023-01-09T19:08:45.346Z,3.72
2023-01-09T19:11:13.587Z,5.07
2023-01-09T19:13:41.760Z,5.30
2023-01-09T19:16:10.907Z,5.28
2023-01-09T19:18:42.350Z,2.15
2023-01-09T19:21:13.039Z,2.45
2023-01-09T19:23:42.093Z,2.63
2023-01-09T19:26:16.542Z,2.53
2023-01-09T19:28:46.957Z,2.03
2023-01-09T19:31:15.527Z,3.28
2023-01-09T19:33:45.611Z,2.53
2023-01-09T19:36:14.142Z,2.28
2023-01-09T19:38:43.594Z,0.45
2023-01-09T19:41:14.900Z,1.33
2023-01-09T19:43:43.407Z,2.20
2023-01-09T19:46:14.198Z,1.83
2023-01-09T19:48:43.330Z,1.98
2023-01-09T19:51:14.258Z,1.88
2023-01-09T19:53:43.275Z,2.28
2023-01-09T19:56:13.213Z,1.65
2023-01-09T19:58:41.736Z,1.38
2023-01-09T20:01:12.364Z,4.05
2023-01-09T20:03:41.642Z,1.75
2023-01-09T20:06:14.803Z,0.50
2023-01-09T20:08:43.271Z,0.57
2023-01-09T20:11:12.241Z,1.42
2023-01-09T20:13:40.559Z,0.80
2023-01-09T20:16:09.987Z,1.05
2023-01-09T20:18:38.124Z,2.22
2023-01-09T20:21:06.851Z,2.83
2023-01-09T20:23:37.767Z,0.88
2023-01-09T20:26:06.662Z,0.88
2023-01-09T20:28:34.785Z,2.08
2023-01-09T20:31:05.802Z,0.30
2023-01-09T20:33:35.051Z,0.43
2023-01-09T20:36:03.443Z,0.63
2023-01-09T20:38:31.784Z,0.80
2023-01-09T20:41:08.404Z,0.50
2023-01-09T20:43:37.089Z,0.60
2023-01-09T20:46:05.792Z,1.95
2023-01-09T20:48:34.398Z,0.28
2023-01-09T20:51:06.607Z,1.00
2023-01-09T20:53:34.918Z,0.85
2023-01-09T20:56:06.872Z,2.13
2023-01-09T20:58:35.358Z,0.47
2023-01-09T21:01:07.653Z,0.35
2023-01-09T21:03:35.807Z,0.63
2023-01-09T21:06:06.509Z,0.85
2023-01-09T21:08:35.593Z,1.85
2023-01-09T21:11:06.479Z,1.77
2023-01-09T21:13:34.652Z,0.52
2023-01-09T21:16:03.863Z,0.50
2023-01-09T21:18:32.210Z,1.30
2023-01-09T21:21:04.383Z,0.70
2023-01-09T21:23:32.797Z,0.82
2023-01-09T21:26:01.303Z,1.02
2023-01-09T21:28:31.778Z,0.40
2023-01-09T21:30:59.938Z,1.30
2023-01-09T21:33:28.031Z,1.45
2023-01-09T21:35:56.897Z,0.30
2023-01-09T21:38:26.028Z,1.00
2023-01-09T21:40:55.400Z,1.48
2023-01-09T21:43:44.236Z,1.40
2023-01-09T21:46:36.349Z,0.65
2023-01-09T21:49:05.248Z,1.88
2023-01-09T21:51:36.442Z,1.20
2023-01-09T21:54:04.706Z,0.88
2023-01-09T21:56:32.809Z,1.35
2023-01-09T21:59:01.273Z,0.95
2023-01-09T22:01:30.994Z,1.48
2023-01-09T22:03:59.662Z,2.03
2023-01-09T22:06:28.769Z,0.50
2023-01-09T22:08:57.162Z,0.40
2023-01-09T22:11:25.357Z,1.25
2023-01-09T22:13:54.429Z,0.60
2023-01-09T22:16:24.341Z,2.05
2023-01-09T22:18:54.462Z,1.02
2023-01-09T22:21:23.172Z,2.20
2023-01-09T22:23:51.586Z,1.77
2023-01-09T22:26:20.391Z,1.75
2023-01-09T22:28:49.422Z,3.10
2023-01-09T22:31:19.020Z,1.77
2023-01-09T22:33:51.775Z,2.13
2023-01-09T22:36:22.100Z,3.20
2023-01-09T22:38:50.254Z,4.35
2023-01-09T22:41:18.583Z,5.22
2023-01-09T22:43:46.696Z,3.55
2023-01-09T22:46:15.219Z,1.92
2023-01-09T22:48:43.342Z,3.47
2023-01-09T22:51:14.813Z,7.97
2023-01-09T22:53:44.863Z,4.60
2023-01-09T22:56:15.419Z,4.13
2023-01-09T22:58:43.958Z,6.15
2023-01-09T23:01:13.592Z,4.90
2023-01-09T23:03:41.685Z,9.68
2023-01-09T23:06:12.745Z,5.28
2023-01-09T23:08:41.288Z,4.68
2023-01-09T23:11:13.761Z,5.30
2023-01-09T23:13:41.970Z,7.22
2023-01-09T23:16:10.536Z,8.20
2023-01-09T23:18:38.917Z,6.53
2023-01-09T23:21:07.113Z,5.78
2023-01-09T23:23:35.236Z,6.70
2023-01-09T23:26:05.807Z,6.30
2023-01-09T23:28:35.273Z,6.43
2023-01-09T23:31:03.595Z,8.13
2023-01-09T23:33:31.698Z,3.55
2023-01-09T23:36:00.103Z,10.40
2023-01-09T23:38:28.469Z,8.50
2023-01-09T23:40:57.947Z,9.27
2023-01-09T23:43:25.381Z,9.00
2023-01-09T23:45:55.188Z,8.20
2023-01-09T23:48:23.679Z,6.43
2023-01-09T23:50:55.058Z,9.73
2023-01-09T23:53:24.295Z,7.65
2023-01-09T23:55:55.669Z,9.48
2023-01-09T23:58:24.087Z,7.80
